Simmons Army Air Field
KFBG : now visible

Airfield :











YOU CAN JOIN US ON...

 
LOGIN :

Register | Disclaimer

   EN    FR    IT 

 









Legend :    VFR   Marginal VFR   IFR   Intensive IFR   Very Intensive IFR
Visi :
Ceiling :
>= 8 km
>= 3000ft
5 to 8 km
1000 to 3000 ft
1500m to 5 km
500 to 1000 ft
800 to 1500m
200 to 500 ft
< 800m
< 200 ft
Symbols :   Thunderstorms  Fog  Heavy snow  Heavy precipitations  Wind > 20 kt






- Airport Elevation : 244 ft


KFBG - Simmons Army Air Field

CURRENT METAR :
  • 042256Z AUTO 18006KT 10SM CLR 31/21 A2992 RMK AO2 SLP132 T03050207 $

EXPIRED METARs :
  • 042156Z AUTO 19008KT 10SM CLR 31/21 A2992 RMK AO2 SLP132 T03100206 $
  • 042056Z AUTO 22005KT 10SM FEW042 31/21 A2992 RMK AO2 SLP132 T03080210 57008 $

TAF TAF KFBG
Valid from the 04 at 17:00 until the 05 at 23:00 UTC


041700Z 0417/0523 26010G15KT 9999 SCT040 QNH2990INS
BECMG 0423/0424 24009KT 9999 BKN040 QNH2991INS
BECMG 0504/0505 19006KT 6000 BR BKN020 BKN040 QNH2992INS
BECMG 0512/0513 21009KT 9999 NSW SCT030 QNH2994INS
TEMPO 0521/0523 17010G20KT 6000 -TSRA FEW004 BKN040CB BKN120 TX32/0419Z TN23/0510Z
KZDC FIR / North America



MET'MAP, your aeronautical weather chart ! - Copyright ORBIFLY December 2007 - Disclaimer

ORBIFLY MET'MAP TEAM :

Programming & Development : Alexandra Zaïnal
Concept & original design : Baudouin d'Aumeries
Assistance for programming : Marc-Olivier Méhu
Technical & hardware support : Manuel Goepfert

Contact : metmap@orbifly.com




SOURCES & CREDITS :

   NOAA       Earth
Advisory